Time;durP1;ratioP1;P1;durP2;ratioP2;P2;SDS_P1;SDS_P2;PMS_P1;PMS_P2;Temp;Humidity;BMP_temperature;BMP_pressure;BME280_temperature;BME280_humidity;BME280_pressure;Samples;Min_cycle;Max_cycle;Signal;HPM_P1;HPM_P2
2022/09/01 00:02:34;;;;;;;0.60;0.60;;;;;;;;;;5134084;27;20224;-59
2022/09/01 00:05:22;;;;;;;0.30;0.30;;;;;;;;;;5130454;27;20223;-59
2022/09/01 00:08:09;;;;;;;0.50;0.50;;;;;;;;;;5138506;27;20257;-58
2022/09/01 00:10:57;;;;;;;0.40;0.40;;;;;;;;;;5136122;27;20198;-58
2022/09/01 00:13:44;;;;;;;0.60;0.60;;;;;;;;;;5134713;27;20310;-58
2022/09/01 00:16:31;;;;;;;0.37;0.37;;;;;;;;;;5134467;27;20258;-58
2022/09/01 00:19:18;;;;;;;0.50;0.50;;;;;;;;;;5132287;27;20686;-58
2022/09/01 00:22:06;;;;;;;0.40;0.40;;;;;;;;;;5140345;27;20676;-58
2022/09/01 00:24:53;;;;;;;0.40;0.40;;;;;;;;;;5140990;27;20209;-58
2022/09/01 00:27:42;;;;;;;0.40;0.40;;;;;;;;;;5137380;27;20202;-58
2022/09/01 00:30:28;;;;;;;0.30;0.30;;;;;;;;;;5131258;27;20223;-58
2022/09/01 00:33:15;;;;;;;0.63;0.63;;;;;;;;;;5130672;27;20301;-58
2022/09/01 00:36:04;;;;;;;0.33;0.33;;;;;;;;;;5136125;27;20224;-59
2022/09/01 00:38:51;;;;;;;0.43;0.43;;;;;;;;;;5138263;27;20208;-58
2022/09/01 00:41:43;;;;;;;0.50;0.50;;;;;;;;;;5133372;27;20211;-59
2022/09/01 00:44:31;;;;;;;0.50;0.50;;;;;;;;;;5141258;27;20209;-58
2022/09/01 00:47:19;;;;;;;0.30;0.30;;;;;;;;;;5135708;27;20195;-59
2022/09/01 00:50:08;;;;;;;0.33;0.33;;;;;;;;;;5135042;27;20690;-59
2022/09/01 00:52:55;;;;;;;0.60;0.60;;;;;;;;;;5130225;27;20230;-59
2022/09/01 00:55:42;;;;;;;0.30;0.30;;;;;;;;;;5134877;27;20206;-58
2022/09/01 00:58:30;;;;;;;0.40;0.40;;;;;;;;;;5135046;27;20209;-58
2022/09/01 01:01:19;;;;;;;0.40;0.40;;;;;;;;;;5134234;27;20715;-59
2022/09/01 01:04:13;;;;;;;0.50;0.50;;;;;;;;;;5128312;27;20209;-58
2022/09/01 01:07:01;;;;;;;0.50;0.50;;;;;;;;;;5139882;27;20230;-58
2022/09/01 01:09:49;;;;;;;0.37;0.37;;;;;;;;;;5129344;27;20236;-59
2022/09/01 01:12:39;;;;;;;0.40;0.40;;;;;;;;;;5138316;27;20585;-59
2022/09/01 01:15:26;;;;;;;0.37;0.37;;;;;;;;;;5133936;27;20291;-59
2022/09/01 01:18:15;;;;;;;0.40;0.40;;;;;;;;;;5138179;27;20584;-58
2022/09/01 01:24:23;;;;;;;0.30;0.30;;;;;;;;;;5134232;27;20198;-59
2022/09/01 01:27:10;;;;;;;0.40;0.40;;;;;;;;;;5129075;27;20718;-58
2022/09/01 01:29:57;;;;;;;0.30;0.30;;;;;;;;;;5130673;27;20208;-58
2022/09/01 01:32:46;;;;;;;0.33;0.33;;;;;;;;;;5134460;27;20230;-60
2022/09/01 01:35:33;;;;;;;0.37;0.37;;;;;;;;;;5137580;27;20209;-59
2022/09/01 01:38:21;;;;;;;0.37;0.37;;;;;;;;;;5134742;27;20229;-59
2022/09/01 01:41:10;;;;;;;0.30;0.30;;;;;;;;;;5134315;27;20219;-59
2022/09/01 01:43:58;;;;;;;0.30;0.30;;;;;;;;;;5136719;27;20279;-59
2022/09/01 01:46:50;;;;;;;0.40;0.40;;;;;;;;;;5135095;27;20217;-58
2022/09/01 01:49:37;;;;;;;0.30;0.30;;;;;;;;;;5140704;27;20235;-58
2022/09/01 01:52:24;;;;;;;0.30;0.30;;;;;;;;;;5131253;27;20230;-59
2022/09/01 01:55:11;;;;;;;0.30;0.30;;;;;;;;;;5133013;27;20206;-58
2022/09/01 01:58:00;;;;;;;0.40;0.37;;;;;;;;;;5134159;27;20210;-59
2022/09/01 02:00:49;;;;;;;0.47;0.47;;;;;;;;;;5137850;27;20248;-59
2022/09/01 02:03:37;;;;;;;0.40;0.40;;;;;;;;;;5133112;27;20282;-58
2022/09/01 02:06:26;;;;;;;0.30;0.30;;;;;;;;;;5138071;27;20228;-58
2022/09/01 02:09:14;;;;;;;0.33;0.33;;;;;;;;;;5134279;27;20230;-58
2022/09/01 02:12:01;;;;;;;0.23;0.23;;;;;;;;;;5130734;27;20203;-58
2022/09/01 02:14:49;;;;;;;0.30;0.30;;;;;;;;;;5128662;27;20695;-59
2022/09/01 02:17:38;;;;;;;0.30;0.30;;;;;;;;;;5129168;28;20311;-59
2022/09/01 02:20:28;;;;;;;0.40;0.40;;;;;;;;;;5133019;27;20253;-59
2022/09/01 02:23:18;;;;;;;0.40;0.40;;;;;;;;;;5137271;27;20216;-59
2022/09/01 02:26:10;;;;;;;0.40;0.40;;;;;;;;;;5134286;27;20202;-59
2022/09/01 02:29:00;;;;;;;0.50;0.50;;;;;;;;;;5135581;27;20608;-58
2022/09/01 02:31:51;;;;;;;0.73;0.50;;;;;;;;;;5137221;27;20211;-58
2022/09/01 02:34:38;;;;;;;0.40;0.40;;;;;;;;;;5135512;27;20253;-58
2022/09/01 02:37:25;;;;;;;0.37;0.37;;;;;;;;;;5129414;27;20198;-58
2022/09/01 02:40:14;;;;;;;0.60;0.60;;;;;;;;;;5136322;27;20241;-58
2022/09/01 02:43:01;;;;;;;0.40;0.40;;;;;;;;;;5136100;27;20211;-58
2022/09/01 02:45:53;;;;;;;0.20;0.20;;;;;;;;;;5140759;27;20220;-58
2022/09/01 02:48:44;;;;;;;0.20;0.20;;;;;;;;;;5139794;27;20291;-58
2022/09/01 02:51:32;;;;;;;0.40;0.40;;;;;;;;;;5136877;27;20207;-58
2022/09/01 02:54:21;;;;;;;0.30;0.30;;;;;;;;;;5141302;27;20682;-58
2022/09/01 02:57:08;;;;;;;0.30;0.30;;;;;;;;;;5138047;27;20242;-58
2022/09/01 02:59:57;;;;;;;0.20;0.20;;;;;;;;;;5140057;27;20209;-59
2022/09/01 03:02:44;;;;;;;0.40;0.40;;;;;;;;;;5140258;27;20199;-59
2022/09/01 03:05:35;;;;;;;0.30;0.30;;;;;;;;;;5140380;27;20258;-59
2022/09/01 03:08:23;;;;;;;0.40;0.40;;;;;;;;;;5128708;27;20228;-58
2022/09/01 03:11:10;;;;;;;0.40;0.40;;;;;;;;;;5132300;27;20230;-59
2022/09/01 03:13:57;;;;;;;0.47;0.30;;;;;;;;;;5132579;27;20761;-59
2022/09/01 03:16:44;;;;;;;0.30;0.30;;;;;;;;;;5136681;27;20218;-58
2022/09/01 03:19:38;;;;;;;0.30;0.30;;;;;;;;;;5133055;27;20204;-58
2022/09/01 03:22:28;;;;;;;0.20;0.20;;;;;;;;;;5132847;27;20271;-59
2022/09/01 03:25:15;;;;;;;0.30;0.30;;;;;;;;;;5135650;27;20207;-59
2022/09/01 03:28:03;;;;;;;0.30;0.30;;;;;;;;;;5135748;27;20779;-58
2022/09/01 03:30:52;;;;;;;0.37;0.37;;;;;;;;;;5142639;27;20655;-58
2022/09/01 03:33:40;;;;;;;0.40;0.40;;;;;;;;;;5145891;27;20233;-59
2022/09/01 03:36:28;;;;;;;0.30;0.30;;;;;;;;;;5131662;27;20207;-58
2022/09/01 03:39:18;;;;;;;0.30;0.30;;;;;;;;;;5138136;27;20203;-58
2022/09/01 03:42:07;;;;;;;0.20;0.20;;;;;;;;;;5135373;27;20616;-59
2022/09/01 03:44:55;;;;;;;0.30;0.30;;;;;;;;;;5141097;27;20327;-59
2022/09/01 03:47:43;;;;;;;0.40;0.40;;;;;;;;;;5137479;27;20208;-58
2022/09/01 03:50:30;;;;;;;0.53;0.40;;;;;;;;;;5135344;27;20694;-58
2022/09/01 03:53:21;;;;;;;0.30;0.30;;;;;;;;;;5138475;27;20713;-58
2022/09/01 03:56:10;;;;;;;0.40;0.40;;;;;;;;;;5137099;27;20208;-58
2022/09/01 03:58:59;;;;;;;0.63;0.63;;;;;;;;;;5139446;27;20217;-58
2022/09/01 04:01:46;;;;;;;1.13;0.40;;;;;;;;;;5133064;27;20215;-58
2022/09/01 04:04:33;;;;;;;0.50;0.50;;;;;;;;;;5139888;27;20222;-59
2022/09/01 04:07:20;;;;;;;0.30;0.30;;;;;;;;;;5133930;27;20209;-58
2022/09/01 04:10:10;;;;;;;0.30;0.30;;;;;;;;;;5131607;27;20253;-60
2022/09/01 04:12:59;;;;;;;0.50;0.50;;;;;;;;;;5135813;27;20239;-59
2022/09/01 04:15:46;;;;;;;0.27;0.27;;;;;;;;;;5133455;27;20210;-59
2022/09/01 04:18:32;;;;;;;0.37;0.37;;;;;;;;;;5136704;27;20204;-58
2022/09/01 04:21:19;;;;;;;0.33;0.33;;;;;;;;;;5132947;27;20289;-59
2022/09/01 04:24:07;;;;;;;0.40;0.40;;;;;;;;;;5138211;27;20206;-60
2022/09/01 04:26:57;;;;;;;0.40;0.40;;;;;;;;;;5135899;27;20210;-59
2022/09/01 04:29:46;;;;;;;0.40;0.40;;;;;;;;;;5135631;27;20225;-58
2022/09/01 04:32:34;;;;;;;0.40;0.40;;;;;;;;;;5130337;27;20216;-59
2022/09/01 04:35:26;;;;;;;0.60;0.60;;;;;;;;;;5131804;27;20343;-59
2022/09/01 04:38:14;;;;;;;0.87;0.87;;;;;;;;;;5139754;27;20241;-60
2022/09/01 04:41:06;;;;;;;0.90;0.90;;;;;;;;;;5134008;27;20228;-60
2022/09/01 04:43:55;;;;;;;0.80;0.80;;;;;;;;;;5132899;27;20293;-58
2022/09/01 04:46:46;;;;;;;0.87;0.87;;;;;;;;;;5139501;27;20209;-59
2022/09/01 04:49:33;;;;;;;1.13;1.10;;;;;;;;;;5142576;27;20204;-58
2022/09/01 04:52:20;;;;;;;1.10;1.10;;;;;;;;;;5133506;27;20211;-59
2022/09/01 04:55:16;;;;;;;0.77;0.77;;;;;;;;;;5134107;27;20211;-59
2022/09/01 04:58:03;;;;;;;0.87;0.87;;;;;;;;;;5134154;27;20296;-59
2022/09/01 05:00:51;;;;;;;1.00;1.00;;;;;;;;;;5137719;27;20294;-59
2022/09/01 05:03:40;;;;;;;0.90;0.90;;;;;;;;;;5130257;27;20215;-59
2022/09/01 05:06:28;;;;;;;1.10;1.10;;;;;;;;;;5132470;27;20272;-59
2022/09/01 05:09:17;;;;;;;1.00;1.00;;;;;;;;;;5135159;27;20235;-59
2022/09/01 05:12:10;;;;;;;0.80;0.80;;;;;;;;;;5132133;27;20587;-59
2022/09/01 05:14:57;;;;;;;0.83;0.83;;;;;;;;;;5130519;27;20224;-59
2022/09/01 05:17:44;;;;;;;1.10;1.10;;;;;;;;;;5133654;27;20207;-59
2022/09/01 05:20:33;;;;;;;0.90;0.90;;;;;;;;;;5129616;27;20202;-59
2022/09/01 05:23:22;;;;;;;1.00;1.00;;;;;;;;;;5130294;27;20212;-59
2022/09/01 05:26:15;;;;;;;0.90;0.90;;;;;;;;;;5127840;27;20200;-59
2022/09/01 05:29:09;;;;;;;1.00;1.00;;;;;;;;;;5130840;27;20559;-59
2022/09/01 05:31:57;;;;;;;1.40;1.30;;;;;;;;;;5133106;27;20590;-59
2022/09/01 05:34:44;;;;;;;1.90;1.13;;;;;;;;;;5129477;27;20232;-59
2022/09/01 05:37:33;;;;;;;1.27;1.20;;;;;;;;;;5138754;27;20205;-59
2022/09/01 05:40:20;;;;;;;2.30;1.00;;;;;;;;;;5129403;27;20212;-59
2022/09/01 05:43:11;;;;;;;0.97;0.97;;;;;;;;;;5128483;27;20209;-59
2022/09/01 05:45:59;;;;;;;1.60;1.50;;;;;;;;;;5130792;27;20217;-59
2022/09/01 05:48:48;;;;;;;1.40;1.30;;;;;;;;;;5131355;27;20206;-59
2022/09/01 05:51:36;;;;;;;1.00;1.00;;;;;;;;;;5131310;27;20586;-59
2022/09/01 05:54:26;;;;;;;1.40;1.30;;;;;;;;;;5134876;27;20217;-59
2022/09/01 05:57:14;;;;;;;1.40;1.30;;;;;;;;;;5130063;27;20586;-60
2022/09/01 06:00:02;;;;;;;1.30;1.30;;;;;;;;;;5134530;27;20699;-59
2022/09/01 06:02:50;;;;;;;1.03;1.03;;;;;;;;;;5133337;27;20240;-60
2022/09/01 06:05:38;;;;;;;0.80;0.80;;;;;;;;;;5140906;27;20220;-59
2022/09/01 06:08:27;;;;;;;1.10;1.00;;;;;;;;;;5130458;27;20235;-60
2022/09/01 06:11:16;;;;;;;0.97;0.97;;;;;;;;;;5134818;27;20210;-59
2022/09/01 06:14:04;;;;;;;1.30;1.20;;;;;;;;;;5133699;27;20227;-59
2022/09/01 06:16:53;;;;;;;0.93;0.93;;;;;;;;;;5129370;27;20296;-59
2022/09/01 06:19:39;;;;;;;1.13;1.13;;;;;;;;;;5136662;27;20283;-60
2022/09/01 06:22:28;;;;;;;1.10;1.10;;;;;;;;;;5137540;27;20205;-60
2022/09/01 06:25:16;;;;;;;0.90;0.90;;;;;;;;;;5130232;27;20199;-59
2022/09/01 06:28:04;;;;;;;0.90;0.90;;;;;;;;;;5127765;27;20216;-59
2022/09/01 06:30:52;;;;;;;1.07;1.07;;;;;;;;;;5130388;27;20659;-60
2022/09/01 06:33:39;;;;;;;1.10;1.10;;;;;;;;;;5131022;27;20230;-60
2022/09/01 06:36:26;;;;;;;1.30;1.20;;;;;;;;;;5134397;27;20665;-59
2022/09/01 06:39:18;;;;;;;1.80;1.70;;;;;;;;;;5130554;27;20223;-59
2022/09/01 06:42:08;;;;;;;1.30;1.17;;;;;;;;;;5131595;27;20212;-59
2022/09/01 06:44:56;;;;;;;1.23;1.23;;;;;;;;;;5129260;28;20232;-59
2022/09/01 06:47:46;;;;;;;0.80;0.80;;;;;;;;;;5139530;27;20211;-59
2022/09/01 06:50:33;;;;;;;0.60;0.60;;;;;;;;;;5129756;27;20335;-61
2022/09/01 06:53:20;;;;;;;1.13;1.03;;;;;;;;;;5131185;27;20214;-59
2022/09/01 06:56:11;;;;;;;1.08;1.08;;;;;;;;;;5134458;27;20340;-59
2022/09/01 06:58:59;;;;;;;1.10;1.10;;;;;;;;;;5133223;27;20213;-60
2022/09/01 07:01:51;;;;;;;1.10;1.00;;;;;;;;;;5128959;28;20207;-59
2022/09/01 07:04:41;;;;;;;1.08;0.90;;;;;;;;;;5138110;27;20204;-59
2022/09/01 07:07:33;;;;;;;1.27;1.17;;;;;;;;;;5129126;27;20208;-59
2022/09/01 07:10:22;;;;;;;1.63;1.42;;;;;;;;;;5130598;27;20198;-58
2022/09/01 07:13:09;;;;;;;1.33;1.23;;;;;;;;;;5128478;27;20212;-60
2022/09/01 07:15:57;;;;;;;1.05;1.00;;;;;;;;;;5131425;27;20705;-60
2022/09/01 07:18:46;;;;;;;1.30;1.20;;;;;;;;;;5134758;27;20585;-59
2022/09/01 07:21:33;;;;;;;0.90;0.90;;;;;;;;;;5139310;27;20214;-57
2022/09/01 07:24:20;;;;;;;1.00;1.00;;;;;;;;;;5134957;27;20208;-58
2022/09/01 07:27:08;;;;;;;1.13;1.00;;;;;;;;;;5132120;27;20209;-56
2022/09/01 07:29:55;;;;;;;1.40;1.30;;;;;;;;;;5136320;27;20253;-56
2022/09/01 07:32:43;;;;;;;1.15;1.02;;;;;;;;;;5141196;27;20284;-57
2022/09/01 07:35:35;;;;;;;1.00;1.00;;;;;;;;;;5142020;27;20232;-57
2022/09/01 07:38:23;;;;;;;1.05;1.05;;;;;;;;;;5143604;27;20236;-57
2022/09/01 07:41:11;;;;;;;1.10;0.90;;;;;;;;;;5132414;27;20250;-57
2022/09/01 07:44:01;;;;;;;1.20;1.00;;;;;;;;;;5141095;27;20556;-57
2022/09/01 07:46:50;;;;;;;1.50;1.40;;;;;;;;;;5131661;27;20288;-57
2022/09/01 07:49:38;;;;;;;0.98;0.98;;;;;;;;;;5140982;27;20708;-56
2022/09/01 07:52:27;;;;;;;1.13;1.02;;;;;;;;;;5141091;27;20204;-57
2022/09/01 07:55:16;;;;;;;1.02;0.88;;;;;;;;;;5126556;27;20213;-57
2022/09/01 07:58:03;;;;;;;1.00;0.93;;;;;;;;;;5131579;27;20204;-57
2022/09/01 08:00:52;;;;;;;0.90;0.90;;;;;;;;;;5129615;27;20205;-56
2022/09/01 08:03:40;;;;;;;1.67;1.10;;;;;;;;;;5134314;27;20212;-57
2022/09/01 08:06:28;;;;;;;0.98;0.98;;;;;;;;;;5131475;27;20225;-56
2022/09/01 08:09:16;;;;;;;0.80;0.80;;;;;;;;;;5142088;27;20236;-56
2022/09/01 08:12:05;;;;;;;1.10;1.00;;;;;;;;;;5138377;27;20213;-56
2022/09/01 08:14:52;;;;;;;0.70;0.70;;;;;;;;;;5131947;27;20301;-57
2022/09/01 08:17:40;;;;;;;1.10;0.90;;;;;;;;;;5131165;27;20277;-57
2022/09/01 08:20:29;;;;;;;4.78;0.93;;;;;;;;;;5133036;27;20213;-56
2022/09/01 08:23:18;;;;;;;1.17;1.08;;;;;;;;;;5132036;27;20747;-56
2022/09/01 08:26:09;;;;;;;1.23;1.23;;;;;;;;;;5137603;27;20631;-55
2022/09/01 08:28:56;;;;;;;0.90;0.90;;;;;;;;;;5133913;27;20205;-56
2022/09/01 08:31:43;;;;;;;0.80;0.80;;;;;;;;;;5137723;27;20688;-57
2022/09/01 08:34:32;;;;;;;1.00;1.00;;;;;;;;;;5130156;27;20227;-58
2022/09/01 08:37:20;;;;;;;1.00;0.80;;;;;;;;;;5134594;27;20283;-58
2022/09/01 08:40:11;;;;;;;1.00;1.00;;;;;;;;;;5131909;27;20212;-57
2022/09/01 08:43:12;;;;;;;0.88;0.88;;;;;;;;;;5130298;27;20209;-58
2022/09/01 08:46:07;;;;;;;0.90;0.90;;;;;;;;;;5136339;27;20284;-57
2022/09/01 08:48:57;;;;;;;1.00;1.00;;;;;;;;;;5137801;27;20209;-57
2022/09/01 08:51:49;;;;;;;1.05;1.05;;;;;;;;;;5137114;27;20287;-57
2022/09/01 08:54:45;;;;;;;1.27;1.20;;;;;;;;;;5135942;27;20709;-57
2022/09/01 08:57:34;;;;;;;0.90;0.90;;;;;;;;;;5134866;27;20196;-58
2022/09/01 09:00:25;;;;;;;0.90;0.90;;;;;;;;;;5131624;27;20194;-59
2022/09/01 09:03:20;;;;;;;0.80;0.80;;;;;;;;;;5131887;27;20278;-59
2022/09/01 09:06:15;;;;;;;1.10;1.10;;;;;;;;;;5137970;27;20304;-58
2022/09/01 09:09:04;;;;;;;0.80;0.80;;;;;;;;;;5140165;27;20228;-59
2022/09/01 09:12:02;;;;;;;0.70;0.70;;;;;;;;;;5134290;27;20276;-58
2022/09/01 09:14:59;;;;;;;0.93;0.93;;;;;;;;;;5130941;27;20305;-58
2022/09/01 09:17:58;;;;;;;1.42;0.80;;;;;;;;;;5129592;27;20669;-59
2022/09/01 09:20:45;;;;;;;0.82;0.82;;;;;;;;;;5138954;27;20224;-58
2022/09/01 09:23:39;;;;;;;0.70;0.70;;;;;;;;;;5130571;27;20208;-58
2022/09/01 09:26:26;;;;;;;0.90;0.90;;;;;;;;;;5140963;27;20674;-58
2022/09/01 09:29:13;;;;;;;0.70;0.70;;;;;;;;;;5126626;27;20209;-58
2022/09/01 09:32:05;;;;;;;0.90;0.90;;;;;;;;;;5127688;27;20205;-58
2022/09/01 09:34:53;;;;;;;0.50;0.50;;;;;;;;;;5132699;27;20281;-58
2022/09/01 09:37:40;;;;;;;1.48;0.77;;;;;;;;;;5138502;27;20258;-58
2022/09/01 09:40:27;;;;;;;0.80;0.80;;;;;;;;;;5130821;27;20558;-58
2022/09/01 09:43:16;;;;;;;0.80;0.80;;;;;;;;;;5137367;27;20289;-58
2022/09/01 09:46:24;;;;;;;0.60;0.60;;;;;;;;;;5131889;27;20238;-58
2022/09/01 09:49:18;;;;;;;0.80;0.80;;;;;;;;;;5133055;27;20197;-58
2022/09/01 09:52:18;;;;;;;1.00;0.80;;;;;;;;;;5139792;27;20333;-58
2022/09/01 09:55:07;;;;;;;0.63;0.63;;;;;;;;;;5135963;27;20227;-58
2022/09/01 09:57:58;;;;;;;0.70;0.70;;;;;;;;;;5136915;27;20216;-58
2022/09/01 10:00:59;;;;;;;0.60;0.60;;;;;;;;;;5132537;27;20564;-58
2022/09/01 10:03:49;;;;;;;0.60;0.60;;;;;;;;;;5141058;27;20629;-57
2022/09/01 10:06:40;;;;;;;0.60;0.60;;;;;;;;;;5129778;27;20301;-58
2022/09/01 10:09:37;;;;;;;0.60;0.60;;;;;;;;;;5140197;27;20253;-58
2022/09/01 10:12:25;;;;;;;0.50;0.50;;;;;;;;;;5133333;27;20217;-58
2022/09/01 10:15:22;;;;;;;0.70;0.70;;;;;;;;;;5129666;27;20224;-58
2022/09/01 10:18:14;;;;;;;0.70;0.70;;;;;;;;;;5130610;27;20242;-58
2022/09/01 10:21:07;;;;;;;0.93;0.93;;;;;;;;;;5137159;27;20292;-58
2022/09/01 10:23:54;;;;;;;0.45;0.45;;;;;;;;;;5131047;27;20238;-57
2022/09/01 10:26:46;;;;;;;0.32;0.32;;;;;;;;;;5140160;27;20211;-58
2022/09/01 10:29:37;;;;;;;0.75;0.50;;;;;;;;;;5129731;27;20201;-58
2022/09/01 10:32:29;;;;;;;0.60;0.60;;;;;;;;;;5137300;27;20652;-58
2022/09/01 10:35:20;;;;;;;0.25;0.25;;;;;;;;;;5129454;27;20692;-58
2022/09/01 10:38:10;;;;;;;0.70;0.70;;;;;;;;;;5139544;27;20287;-58
2022/09/01 10:41:06;;;;;;;0.57;0.57;;;;;;;;;;5130237;27;20219;-58
2022/09/01 10:44:07;;;;;;;0.50;0.50;;;;;;;;;;5132538;27;20330;-58
2022/09/01 10:46:55;;;;;;;0.63;0.63;;;;;;;;;;5127851;28;20559;-58
2022/09/01 10:49:59;;;;;;;0.57;0.57;;;;;;;;;;5128594;27;20212;-58
2022/09/01 10:52:58;;;;;;;0.40;0.40;;;;;;;;;;5132933;27;20207;-58
2022/09/01 10:55:48;;;;;;;0.50;0.50;;;;;;;;;;5133751;27;20583;-57
2022/09/01 10:58:56;;;;;;;0.60;0.50;;;;;;;;;;5129619;27;20198;-57
2022/09/01 11:02:11;;;;;;;0.50;0.50;;;;;;;;;;5133804;27;20268;-58
2022/09/01 11:05:17;;;;;;;0.40;0.40;;;;;;;;;;5131988;27;20267;-58
2022/09/01 11:08:21;;;;;;;0.40;0.40;;;;;;;;;;5141769;27;20200;-58
2022/09/01 11:11:21;;;;;;;0.40;0.40;;;;;;;;;;5134758;27;20205;-58
2022/09/01 11:14:18;;;;;;;0.43;0.43;;;;;;;;;;5140186;27;20303;-58
2022/09/01 11:17:16;;;;;;;0.40;0.40;;;;;;;;;;5132183;27;20543;-58
2022/09/01 11:20:08;;;;;;;0.52;0.52;;;;;;;;;;5143651;27;20292;-60
2022/09/01 11:23:01;;;;;;;0.25;0.25;;;;;;;;;;5132808;27;20209;-58
2022/09/01 11:25:50;;;;;;;0.60;0.60;;;;;;;;;;5144318;27;20210;-58
2022/09/01 11:28:42;;;;;;;0.47;0.47;;;;;;;;;;5129250;27;20196;-57
2022/09/01 11:31:39;;;;;;;0.40;0.40;;;;;;;;;;5131926;27;20288;-58
2022/09/01 11:34:29;;;;;;;0.30;0.30;;;;;;;;;;5131924;27;20285;-58
2022/09/01 11:37:20;;;;;;;0.40;0.40;;;;;;;;;;5136556;27;20291;-58
2022/09/01 11:40:08;;;;;;;0.40;0.40;;;;;;;;;;5144304;27;20228;-58
2022/09/01 11:43:00;;;;;;;0.65;0.63;;;;;;;;;;5131538;27;20208;-57
2022/09/01 11:46:00;;;;;;;0.45;0.45;;;;;;;;;;5140193;27;20208;-58
2022/09/01 11:48:48;;;;;;;0.50;0.50;;;;;;;;;;5130941;27;20200;-57
2022/09/01 11:51:46;;;;;;;0.50;0.50;;;;;;;;;;5134715;27;20203;-57
2022/09/01 11:54:39;;;;;;;0.30;0.30;;;;;;;;;;5130816;27;20222;-58
2022/09/01 11:57:29;;;;;;;0.52;0.52;;;;;;;;;;5138965;27;20224;-57
2022/09/01 12:00:27;;;;;;;0.30;0.30;;;;;;;;;;5131752;27;20238;-58
2022/09/01 12:03:22;;;;;;;0.22;0.22;;;;;;;;;;5135801;27;20701;-57
2022/09/01 12:06:12;;;;;;;0.50;0.50;;;;;;;;;;5132490;27;20308;-58
2022/09/01 12:09:03;;;;;;;0.30;0.30;;;;;;;;;;5141146;27;20602;-58
2022/09/01 12:11:51;;;;;;;0.30;0.30;;;;;;;;;;5133817;27;20335;-58
2022/09/01 12:14:38;;;;;;;0.40;0.40;;;;;;;;;;5129655;27;20222;-58
2022/09/01 12:17:25;;;;;;;0.30;0.30;;;;;;;;;;5133738;27;20218;-58
2022/09/01 12:20:29;;;;;;;0.40;0.40;;;;;;;;;;5142678;27;20341;-58
2022/09/01 12:23:23;;;;;;;0.45;0.40;;;;;;;;;;5136694;27;20204;-58
2022/09/01 12:26:14;;;;;;;0.50;0.50;;;;;;;;;;5139417;27;20773;-58
2022/09/01 12:29:01;;;;;;;0.40;0.40;;;;;;;;;;5132739;27;20205;-58
2022/09/01 12:31:51;;;;;;;0.50;0.50;;;;;;;;;;5138201;27;20208;-57
2022/09/01 12:34:40;;;;;;;0.60;0.60;;;;;;;;;;5131644;27;20197;-58
2022/09/01 12:37:28;;;;;;;0.50;0.50;;;;;;;;;;5132324;27;20207;-57
2022/09/01 12:40:24;;;;;;;0.52;0.52;;;;;;;;;;5139465;27;20613;-58
2022/09/01 12:43:27;;;;;;;0.50;0.50;;;;;;;;;;5134017;27;20235;-58
2022/09/01 12:46:34;;;;;;;0.57;0.57;;;;;;;;;;5137364;27;20203;-58
2022/09/01 12:49:24;;;;;;;0.55;0.55;;;;;;;;;;5131657;27;20282;-57
2022/09/01 12:52:24;;;;;;;0.30;0.30;;;;;;;;;;5130500;27;20686;-57
2022/09/01 12:55:15;;;;;;;0.57;0.45;;;;;;;;;;5131084;27;20209;-58
2022/09/01 12:58:04;;;;;;;0.40;0.40;;;;;;;;;;5139648;27;20689;-58
2022/09/01 13:00:58;;;;;;;0.50;0.50;;;;;;;;;;5133512;27;20310;-57
2022/09/01 13:04:06;;;;;;;0.32;0.32;;;;;;;;;;5132738;27;20201;-58
2022/09/01 13:06:55;;;;;;;0.52;0.43;;;;;;;;;;5133631;27;20628;-57
2022/09/01 13:09:42;;;;;;;0.40;0.40;;;;;;;;;;5130607;27;20323;-58
2022/09/01 13:12:29;;;;;;;0.40;0.40;;;;;;;;;;5133787;27;20249;-58
2022/09/01 13:15:16;;;;;;;0.60;0.60;;;;;;;;;;5135052;27;20232;-58
2022/09/01 13:18:04;;;;;;;0.95;0.40;;;;;;;;;;5129850;27;20193;-58
2022/09/01 13:20:53;;;;;;;1.30;0.60;;;;;;;;;;5136866;27;20242;-58
2022/09/01 13:23:40;;;;;;;1.33;1.33;;;;;;;;;;5134658;27;20342;-57
2022/09/01 13:26:30;;;;;;;1.20;1.20;;;;;;;;;;5132702;27;20276;-58
2022/09/01 13:29:17;;;;;;;0.88;0.88;;;;;;;;;;5133085;27;20549;-58
2022/09/01 13:32:04;;;;;;;0.88;0.88;;;;;;;;;;5134934;27;20748;-58
2022/09/01 13:34:53;;;;;;;0.68;0.68;;;;;;;;;;5133634;27;20249;-57
2022/09/01 13:37:40;;;;;;;0.77;0.77;;;;;;;;;;5130259;27;20209;-57
2022/09/01 13:40:27;;;;;;;0.70;0.70;;;;;;;;;;5134112;27;20283;-57
2022/09/01 13:43:14;;;;;;;0.90;0.90;;;;;;;;;;5129622;27;20274;-57
2022/09/01 13:46:01;;;;;;;0.90;0.90;;;;;;;;;;5138876;27;20212;-58
2022/09/01 13:48:48;;;;;;;0.70;0.70;;;;;;;;;;5131048;27;20249;-57
2022/09/01 13:51:36;;;;;;;0.90;0.90;;;;;;;;;;5132053;27;20386;-58
2022/09/01 13:54:23;;;;;;;0.70;0.70;;;;;;;;;;5130784;27;20297;-57
2022/09/01 13:57:12;;;;;;;0.80;0.80;;;;;;;;;;5139127;27;20220;-58
2022/09/01 13:59:59;;;;;;;0.80;0.80;;;;;;;;;;5128861;27;20222;-57
2022/09/01 14:02:48;;;;;;;0.73;0.73;;;;;;;;;;5136680;27;20280;-58
2022/09/01 14:05:38;;;;;;;0.77;0.77;;;;;;;;;;5132659;27;20228;-58
2022/09/01 14:08:27;;;;;;;1.67;0.93;;;;;;;;;;5141747;27;20273;-57
2022/09/01 14:11:18;;;;;;;0.70;0.70;;;;;;;;;;5130012;27;20293;-57
2022/09/01 14:14:05;;;;;;;0.60;0.60;;;;;;;;;;5129133;28;20350;-58
2022/09/01 14:16:52;;;;;;;0.70;0.70;;;;;;;;;;5128843;27;20853;-57
2022/09/01 14:19:40;;;;;;;0.70;0.70;;;;;;;;;;5139273;27;20207;-57
2022/09/01 14:22:28;;;;;;;0.82;0.82;;;;;;;;;;5131672;27;20283;-58
2022/09/01 14:25:18;;;;;;;0.88;0.88;;;;;;;;;;5132607;27;20292;-58
2022/09/01 14:28:05;;;;;;;0.80;0.80;;;;;;;;;;5130039;27;20211;-58
2022/09/01 14:30:52;;;;;;;0.75;0.75;;;;;;;;;;5131507;27;20236;-58
2022/09/01 14:33:40;;;;;;;0.73;0.73;;;;;;;;;;5132837;27;20283;-57
2022/09/01 14:36:27;;;;;;;0.80;0.80;;;;;;;;;;5133169;27;20225;-58
2022/09/01 14:39:14;;;;;;;0.70;0.70;;;;;;;;;;5136155;27;20208;-57
2022/09/01 14:42:05;;;;;;;0.70;0.70;;;;;;;;;;5128953;27;20670;-58
2022/09/01 14:44:52;;;;;;;0.70;0.70;;;;;;;;;;5131302;27;20288;-58
2022/09/01 14:47:39;;;;;;;0.70;0.70;;;;;;;;;;5122611;27;20291;-58
2022/09/01 14:50:30;;;;;;;0.75;0.75;;;;;;;;;;5132789;27;20214;-57
2022/09/01 14:53:18;;;;;;;0.60;0.60;;;;;;;;;;5134857;27;20228;-58
2022/09/01 14:56:05;;;;;;;0.55;0.55;;;;;;;;;;5138153;27;20367;-58
2022/09/01 14:58:57;;;;;;;0.50;0.50;;;;;;;;;;5131786;27;20387;-58
2022/09/01 15:01:44;;;;;;;0.70;0.70;;;;;;;;;;5133590;27;20199;-58
2022/09/01 15:04:32;;;;;;;0.88;0.88;;;;;;;;;;5130815;27;20208;-57
2022/09/01 15:07:19;;;;;;;0.63;0.63;;;;;;;;;;5133562;27;20291;-58
2022/09/01 15:10:10;;;;;;;0.73;0.73;;;;;;;;;;5133182;27;20719;-58
2022/09/01 15:12:59;;;;;;;0.68;0.68;;;;;;;;;;5132452;27;20667;-58
2022/09/01 15:15:48;;;;;;;0.73;0.73;;;;;;;;;;5132038;27;20212;-58
2022/09/01 15:18:35;;;;;;;0.73;0.73;;;;;;;;;;5134695;27;20203;-58
2022/09/01 15:21:24;;;;;;;0.60;0.60;;;;;;;;;;5133738;27;20616;-58
2022/09/01 15:24:12;;;;;;;0.77;0.77;;;;;;;;;;5133814;27;20296;-58
2022/09/01 15:26:58;;;;;;;0.55;0.55;;;;;;;;;;5131678;27;20195;-58
2022/09/01 15:29:47;;;;;;;0.60;0.60;;;;;;;;;;5132952;27;20695;-58
2022/09/01 15:32:35;;;;;;;0.70;0.70;;;;;;;;;;5129914;27;20679;-59
2022/09/01 15:35:22;;;;;;;0.68;0.68;;;;;;;;;;5135219;27;20202;-58
2022/09/01 15:38:10;;;;;;;0.70;0.70;;;;;;;;;;5132851;27;20235;-58
2022/09/01 15:40:57;;;;;;;0.52;0.52;;;;;;;;;;5132921;27;20244;-58
2022/09/01 15:43:44;;;;;;;0.75;0.75;;;;;;;;;;5135720;27;20586;-58
2022/09/01 15:46:32;;;;;;;0.90;0.90;;;;;;;;;;5133912;27;20192;-58
2022/09/01 15:49:20;;;;;;;0.73;0.73;;;;;;;;;;5134188;27;20200;-58
2022/09/01 15:52:07;;;;;;;0.73;0.70;;;;;;;;;;5129226;27;20218;-58
2022/09/01 15:54:54;;;;;;;0.65;0.65;;;;;;;;;;5134287;27;20703;-59
2022/09/01 15:57:42;;;;;;;0.85;0.85;;;;;;;;;;5129568;27;20222;-58
2022/09/01 16:00:31;;;;;;;0.68;0.68;;;;;;;;;;5135322;27;20207;-58
2022/09/01 16:03:18;;;;;;;0.73;0.73;;;;;;;;;;5130632;27;20207;-58
2022/09/01 16:06:08;;;;;;;0.63;0.63;;;;;;;;;;5133646;27;20400;-58
2022/09/01 16:08:55;;;;;;;0.80;0.80;;;;;;;;;;5131748;27;20251;-58
2022/09/01 16:11:43;;;;;;;0.93;0.93;;;;;;;;;;5136595;27;20204;-60
2022/09/01 16:14:30;;;;;;;1.13;0.90;;;;;;;;;;5131189;27;20248;-58
2022/09/01 16:17:26;;;;;;;0.70;0.70;;;;;;;;;;5140992;27;20235;-58
2022/09/01 16:20:19;;;;;;;0.70;0.70;;;;;;;;;;5134900;27;20209;-57
2022/09/01 16:23:14;;;;;;;0.73;0.73;;;;;;;;;;5142643;27;20197;-58
2022/09/01 16:26:01;;;;;;;0.70;0.70;;;;;;;;;;5131632;27;20215;-57
2022/09/01 16:28:51;;;;;;;0.97;0.97;;;;;;;;;;5136684;27;20648;-58
2022/09/01 16:31:55;;;;;;;0.60;0.60;;;;;;;;;;5115825;27;20210;-58
2022/09/01 16:34:46;;;;;;;1.07;0.90;;;;;;;;;;5112538;27;20214;-59
2022/09/01 16:37:44;;;;;;;0.80;0.80;;;;;;;;;;5119241;27;20639;-58
2022/09/01 16:40:41;;;;;;;0.70;0.70;;;;;;;;;;5135199;27;20229;-59
2022/09/01 16:43:35;;;;;;;0.93;0.93;;;;;;;;;;5131995;27;20205;-59
2022/09/01 16:46:29;;;;;;;0.80;0.80;;;;;;;;;;5130331;27;20203;-59
2022/09/01 16:49:26;;;;;;;0.63;0.63;;;;;;;;;;5129513;27;20670;-58
2022/09/01 16:52:22;;;;;;;0.90;0.90;;;;;;;;;;5129270;27;20214;-59
2022/09/01 16:55:21;;;;;;;0.60;0.60;;;;;;;;;;5128600;27;20666;-59
2022/09/01 16:58:21;;;;;;;0.70;0.70;;;;;;;;;;5130276;27;20225;-58
2022/09/01 17:01:21;;;;;;;0.60;0.60;;;;;;;;;;5127170;27;20269;-59
2022/09/01 17:04:25;;;;;;;0.60;0.60;;;;;;;;;;5130279;27;20197;-58